Time;durP1;ratioP1;P1;durP2;ratioP2;P2;SDS_P1;SDS_P2;PMS_P1;PMS_P2;Temp;Humidity;BMP_temperature;BMP_pressure;BME280_temperature;BME280_humidity;BME280_pressure;Samples;Min_cycle;Max_cycle;Signal;HPM_P1;HPM_P2
2022/04/19 00:01:38;;;;;;;7.50;5.43;;;17.40;52.40;;;;;;4829886;29;20057;-71
2022/04/19 00:04:04;;;;;;;7.05;5.70;;;17.40;52.40;;;;;;4830529;29;20053;-70
2022/04/19 00:06:30;;;;;;;6.13;5.30;;;17.40;52.10;;;;;;4846497;29;20054;-71
2022/04/19 00:08:56;;;;;;;6.63;5.18;;;17.40;51.90;;;;;;4846673;29;20050;-71
2022/04/19 00:11:22;;;;;;;6.75;5.57;;;17.40;52.30;;;;;;4829046;29;20130;-72
2022/04/19 00:13:47;;;;;;;6.40;5.43;;;17.30;51.90;;;;;;4830197;29;20054;-73
2022/04/19 00:16:14;;;;;;;6.95;5.07;;;17.30;52.70;;;;;;4846871;29;20045;-72
2022/04/19 00:18:40;;;;;;;6.70;5.25;;;17.40;51.90;;;;;;4846250;29;20354;-71
2022/04/19 00:21:06;;;;;;;7.43;5.18;;;17.40;51.90;;;;;;4844223;29;20069;-71
2022/04/19 00:23:32;;;;;;;6.10;5.07;;;17.40;51.60;;;;;;4828318;29;20046;-72
2022/04/19 00:25:57;;;;;;;7.38;5.38;;;17.40;51.50;;;;;;4811889;29;20107;-71
2022/04/19 00:28:23;;;;;;;6.68;5.50;;;17.40;51.50;;;;;;4811858;29;20046;-72
2022/04/19 00:30:49;;;;;;;7.45;5.53;;;17.30;51.20;;;;;;4811628;29;20107;-74
2022/04/19 00:33:15;;;;;;;5.90;5.00;;;17.30;51.30;;;;;;4828517;29;20061;-73
2022/04/19 00:35:42;;;;;;;6.00;5.43;;;17.30;51.40;;;;;;4846108;29;20094;-70
2022/04/19 00:38:08;;;;;;;7.22;5.63;;;17.30;51.20;;;;;;4829778;29;20069;-72
2022/04/19 00:40:34;;;;;;;8.30;5.65;;;17.20;51.10;;;;;;4830051;29;20053;-71
2022/04/19 00:43:00;;;;;;;7.18;5.40;;;17.20;51.00;;;;;;4829468;29;20049;-73
2022/04/19 00:45:26;;;;;;;6.10;5.10;;;17.20;51.10;;;;;;4844805;29;20053;-71
2022/04/19 00:47:52;;;;;;;6.65;5.13;;;17.20;51.20;;;;;;4846130;29;20468;-70
2022/04/19 00:50:19;;;;;;;7.95;5.68;;;17.10;51.20;;;;;;4829191;29;20064;-71
2022/04/19 00:52:44;;;;;;;6.88;5.43;;;17.10;51.30;;;;;;4845271;29;20068;-70
2022/04/19 00:55:11;;;;;;;6.68;6.00;;;17.10;51.20;;;;;;4845577;29;20454;-74
2022/04/19 00:57:38;;;;;;;6.07;5.47;;;17.10;51.20;;;;;;4845562;29;20374;-70
2022/04/19 01:00:08;;;;;;;7.90;5.88;;;17.10;51.30;;;;;;4827123;29;20466;-73
2022/04/19 01:02:35;;;;;;;8.23;6.07;;;17.00;51.20;;;;;;4833672;29;20123;-71
2022/04/19 01:05:01;;;;;;;7.85;5.75;;;17.00;51.30;;;;;;4811164;29;20129;-73
2022/04/19 01:07:26;;;;;;;7.57;5.53;;;16.90;51.30;;;;;;4841810;29;20133;-71
2022/04/19 01:09:52;;;;;;;6.93;5.65;;;16.90;51.40;;;;;;4827092;29;20077;-73
2022/04/19 01:15:05;;;;;;;7.38;5.90;;;16.80;51.50;;;;;;4845043;29;20061;-70
2022/04/19 01:17:34;;;;;;;7.65;5.93;;;16.80;51.60;;;;;;4845137;29;20058;-71
2022/04/19 01:20:03;;;;;;;7.53;5.93;;;16.70;51.60;;;;;;4829376;29;20062;-71
2022/04/19 01:22:39;;;;;;;7.18;5.38;;;16.70;51.70;;;;;;4844534;29;20073;-71
2022/04/19 01:25:07;;;;;;;8.82;6.28;;;16.70;51.60;;;;;;4844490;29;20053;-72
2022/04/19 01:27:33;;;;;;;8.43;6.47;;;16.70;52.00;;;;;;4844743;29;20457;-70
2022/04/19 01:30:03;;;;;;;6.43;5.70;;;16.60;52.00;;;;;;4845176;29;20080;-72
2022/04/19 01:32:30;;;;;;;6.78;5.32;;;16.60;52.00;;;;;;4819198;29;20162;-72
2022/04/19 01:35:13;;;;;;;8.38;5.90;;;16.60;52.20;;;;;;4826622;29;20085;-71
2022/04/19 01:37:42;;;;;;;6.10;5.50;;;16.50;51.90;;;;;;4840705;29;20061;-70
2022/04/19 01:40:18;;;;;;;8.05;6.25;;;16.60;52.40;;;;;;4840891;29;20069;-71
2022/04/19 01:42:50;;;;;;;8.02;5.80;;;16.50;52.40;;;;;;4826561;29;20046;-71
2022/04/19 01:45:18;;;;;;;8.63;6.43;;;16.50;52.20;;;;;;4840927;29;20054;-71
2022/04/19 01:47:44;;;;;;;7.88;6.10;;;16.50;52.30;;;;;;4810504;29;20065;-69
2022/04/19 01:50:11;;;;;;;8.57;6.00;;;16.50;52.30;;;;;;4821198;29;20374;-71
2022/04/19 01:52:39;;;;;;;7.63;6.35;;;16.50;52.40;;;;;;4829304;29;20062;-70
2022/04/19 01:55:06;;;;;;;9.65;6.10;;;16.50;52.40;;;;;;4844937;29;20041;-71
2022/04/19 01:57:33;;;;;;;6.53;5.85;;;16.50;52.30;;;;;;4844736;29;20066;-72
2022/04/19 01:59:59;;;;;;;9.52;5.85;;;16.50;52.30;;;;;;4840326;29;20546;-73
2022/04/19 02:02:25;;;;;;;8.88;6.28;;;16.50;52.40;;;;;;4834146;29;20470;-70
2022/04/19 02:04:50;;;;;;;8.07;6.43;;;16.50;52.40;;;;;;4828353;29;20050;-71
2022/04/19 02:07:16;;;;;;;7.30;5.90;;;16.50;52.30;;;;;;4810251;29;20055;-70
2022/04/19 02:09:42;;;;;;;8.32;6.30;;;16.60;52.40;;;;;;4826706;29;20057;-70
2022/04/19 02:12:09;;;;;;;7.35;5.75;;;16.60;52.50;;;;;;4833196;29;20054;-72
2022/04/19 02:14:34;;;;;;;7.65;5.63;;;16.50;52.50;;;;;;4843778;29;20353;-72
2022/04/19 02:17:00;;;;;;;7.72;6.38;;;16.50;52.50;;;;;;4844546;29;20053;-71
2022/04/19 02:19:26;;;;;;;9.73;6.07;;;16.60;52.50;;;;;;4844185;29;20129;-71
2022/04/19 02:21:52;;;;;;;7.63;5.82;;;16.60;52.40;;;;;;4844540;29;20141;-73
2022/04/19 02:24:17;;;;;;;8.98;6.07;;;16.50;52.20;;;;;;4844262;29;20114;-71
2022/04/19 02:26:43;;;;;;;7.65;5.78;;;16.50;52.10;;;;;;4844167;29;20058;-71
2022/04/19 02:29:11;;;;;;;7.53;5.72;;;16.50;52.30;;;;;;4844366;29;20129;-70
2022/04/19 02:31:38;;;;;;;6.38;5.55;;;16.50;52.40;;;;;;4843967;29;20076;-71
2022/04/19 02:34:06;;;;;;;7.43;5.75;;;16.50;52.40;;;;;;4844311;29;20061;-70
2022/04/19 02:36:32;;;;;;;7.15;5.55;;;16.50;52.60;;;;;;4843977;29;20058;-70
2022/04/19 02:38:59;;;;;;;6.93;5.55;;;16.50;52.70;;;;;;4844095;29;20472;-70
2022/04/19 02:41:25;;;;;;;7.53;5.80;;;16.50;52.80;;;;;;4842785;29;20076;-71
2022/04/19 02:43:51;;;;;;;7.20;6.18;;;16.50;52.90;;;;;;4810713;29;20065;-70
2022/04/19 02:46:17;;;;;;;8.93;5.60;;;16.50;52.90;;;;;;4825933;29;20133;-70
2022/04/19 02:48:43;;;;;;;6.88;5.72;;;16.50;52.90;;;;;;4840364;29;20054;-71
2022/04/19 02:51:08;;;;;;;8.90;5.50;;;16.50;52.90;;;;;;4825760;29;20055;-72
2022/04/19 02:53:34;;;;;;;8.10;5.78;;;16.50;52.90;;;;;;4842956;29;20049;-71
2022/04/19 02:56:01;;;;;;;7.00;5.63;;;16.50;52.90;;;;;;4843909;29;20517;-71
2022/04/19 02:58:27;;;;;;;7.95;5.72;;;16.50;52.90;;;;;;4844188;29;20399;-72
2022/04/19 03:00:52;;;;;;;7.53;5.22;;;16.50;52.90;;;;;;4828159;29;20121;-72
2022/04/19 03:03:18;;;;;;;7.28;5.35;;;16.50;52.90;;;;;;4828586;29;20479;-71
2022/04/19 03:05:44;;;;;;;7.40;5.30;;;16.50;52.90;;;;;;4825280;29;20088;-70
2022/04/19 03:08:09;;;;;;;6.32;5.18;;;16.40;52.80;;;;;;4825462;29;20086;-72
2022/04/19 03:10:35;;;;;;;7.05;5.45;;;16.40;52.80;;;;;;4816470;29;20065;-71
2022/04/19 03:13:01;;;;;;;8.05;5.65;;;16.40;52.80;;;;;;4844054;29;20116;-71
2022/04/19 03:15:27;;;;;;;7.25;5.10;;;16.30;52.60;;;;;;4827354;29;20493;-73
2022/04/19 03:17:53;;;;;;;8.85;5.78;;;16.20;52.60;;;;;;4827946;29;20142;-71
2022/04/19 03:20:19;;;;;;;6.70;4.57;;;16.20;52.70;;;;;;4843576;29;20128;-71
2022/04/19 03:28:13;;;;;;;6.15;4.82;;;16.00;53.00;;;;;;4846309;29;20442;-72
2022/04/19 03:30:39;;;;;;;8.80;5.72;;;16.00;53.00;;;;;;4846931;29;20046;-74
2022/04/19 03:33:05;;;;;;;6.95;5.40;;;15.90;53.00;;;;;;4847223;29;20493;-73
2022/04/19 03:35:31;;;;;;;6.65;4.68;;;15.90;53.00;;;;;;4846788;29;20126;-70
2022/04/19 03:37:57;;;;;;;6.95;5.38;;;15.90;52.90;;;;;;4846474;29;20069;-73
2022/04/19 03:40:24;;;;;;;7.80;6.00;;;15.90;52.80;;;;;;4846403;29;20053;-73
2022/04/19 03:42:50;;;;;;;7.90;5.82;;;16.00;52.70;;;;;;4846665;29;20438;-71
2022/04/19 03:45:16;;;;;;;8.45;6.13;;;15.90;52.70;;;;;;4846328;29;20054;-72
2022/04/19 03:47:41;;;;;;;8.05;6.05;;;15.90;52.90;;;;;;4846823;29;20561;-71
2022/04/19 03:50:07;;;;;;;7.15;5.60;;;15.80;52.80;;;;;;4846356;29;20382;-71
2022/04/19 03:52:36;;;;;;;8.35;6.03;;;15.80;52.80;;;;;;4846695;29;20488;-71
2022/04/19 03:55:02;;;;;;;7.38;6.30;;;15.70;52.80;;;;;;4846671;29;20117;-73
2022/04/19 03:57:28;;;;;;;7.85;6.25;;;15.70;52.90;;;;;;4830126;29;20066;-70
2022/04/19 03:59:54;;;;;;;7.53;6.13;;;15.70;53.00;;;;;;4830492;29;20065;-69
2022/04/19 04:02:20;;;;;;;6.90;5.57;;;15.70;53.00;;;;;;4845849;29;20109;-70
2022/04/19 04:04:46;;;;;;;8.60;5.97;;;15.70;52.90;;;;;;4846446;29;20072;-72
2022/04/19 04:07:12;;;;;;;9.57;6.63;;;15.70;52.90;;;;;;4830442;29;20616;-73
2022/04/19 04:09:38;;;;;;;8.30;6.25;;;15.70;52.90;;;;;;4846523;29;20054;-71
2022/04/19 04:12:09;;;;;;;7.68;5.95;;;15.70;52.80;;;;;;4839409;29;20170;-71
2022/04/19 04:14:36;;;;;;;9.32;5.90;;;15.70;52.80;;;;;;4829895;29;20515;-70
2022/04/19 04:17:02;;;;;;;8.75;6.63;;;15.80;52.80;;;;;;4846169;29;20346;-71
2022/04/19 04:19:28;;;;;;;7.50;6.38;;;15.70;52.50;;;;;;4845900;29;20054;-70
2022/04/19 04:21:54;;;;;;;7.30;6.13;;;15.70;52.50;;;;;;4845803;29;20065;-72
2022/04/19 04:24:20;;;;;;;8.50;5.90;;;15.70;52.50;;;;;;4846771;29;20125;-71
2022/04/19 04:26:46;;;;;;;9.38;6.60;;;15.70;52.50;;;;;;4846070;29;20058;-73
2022/04/19 04:29:12;;;;;;;7.95;6.22;;;15.60;52.40;;;;;;4830079;29;20454;-70
2022/04/19 04:31:38;;;;;;;10.65;7.47;;;15.50;52.40;;;;;;4824526;29;20142;-72
2022/04/19 04:34:05;;;;;;;8.57;6.45;;;15.50;52.70;;;;;;4844786;29;20133;-70
2022/04/19 04:36:31;;;;;;;10.50;6.32;;;15.50;52.80;;;;;;4845794;29;20560;-71
2022/04/19 04:38:56;;;;;;;13.05;7.25;;;15.50;52.90;;;;;;4829649;29;20125;-70
2022/04/19 04:41:22;;;;;;;9.18;6.65;;;15.50;52.70;;;;;;4845523;29;20053;-71
2022/04/19 04:43:48;;;;;;;10.52;6.45;;;15.60;52.80;;;;;;4845612;29;20141;-70
2022/04/19 04:51:42;;;;;;;12.82;9.50;;;15.80;50.60;;;;;;4840338;29;20050;-70
2022/04/19 04:54:08;;;;;;;13.90;8.15;;;15.60;50.20;;;;;;4844910;29;20129;-74
2022/04/19 04:56:33;;;;;;;13.38;8.68;;;15.60;50.50;;;;;;4845096;29;20057;-73
2022/04/19 04:58:59;;;;;;;21.20;8.77;;;15.70;50.90;;;;;;4845706;29;20068;-72
2022/04/19 05:01:26;;;;;;;16.42;8.50;;;15.70;51.50;;;;;;4845409;29;20058;-78
2022/04/19 05:03:51;;;;;;;13.00;8.07;;;15.80;52.90;;;;;;4845276;29;20054;-76
2022/04/19 05:06:17;;;;;;;12.90;7.45;;;15.90;52.80;;;;;;4845072;29;20374;-74
2022/04/19 05:08:43;;;;;;;10.15;6.78;;;16.00;52.40;;;;;;4844133;29;20341;-74
2022/04/19 05:11:09;;;;;;;13.30;7.63;;;16.20;52.10;;;;;;4828494;29;20075;-75
2022/04/19 05:13:35;;;;;;;12.18;6.30;;;16.40;52.00;;;;;;4828719;29;20370;-74
2022/04/19 05:16:01;;;;;;;9.57;6.43;;;16.60;52.00;;;;;;4845004;29;20129;-75
2022/04/19 05:18:27;;;;;;;10.70;6.30;;;16.70;52.00;;;;;;4844288;29;20462;-76
2022/04/19 05:20:53;;;;;;;9.95;6.13;;;16.80;52.00;;;;;;4845059;29;20087;-72
2022/04/19 05:23:20;;;;;;;11.25;5.90;;;17.00;52.00;;;;;;4844662;29;20065;-75
2022/04/19 05:25:45;;;;;;;11.52;6.03;;;17.00;52.10;;;;;;4829258;29;20053;-73
2022/04/19 05:28:11;;;;;;;10.25;5.22;;;17.10;52.20;;;;;;4826190;29;20049;-73
2022/04/19 05:30:37;;;;;;;8.27;5.47;;;17.20;52.40;;;;;;4828813;29;20058;-75
2022/04/19 05:33:03;;;;;;;11.05;5.68;;;17.30;52.60;;;;;;4844586;29;20118;-73
2022/04/19 05:35:29;;;;;;;8.02;5.38;;;17.30;52.60;;;;;;4844778;29;20061;-75
2022/04/19 05:37:55;;;;;;;13.98;5.28;;;17.50;52.60;;;;;;4844900;29;20089;-75
2022/04/19 05:40:21;;;;;;;8.63;4.75;;;17.60;52.60;;;;;;4844757;29;20068;-76
2022/04/19 05:42:48;;;;;;;10.98;4.78;;;17.70;52.70;;;;;;4837490;29;20414;-73
2022/04/19 05:45:13;;;;;;;9.82;5.40;;;17.80;52.80;;;;;;4844624;29;20046;-74
2022/04/19 05:47:39;;;;;;;11.35;5.00;;;17.90;52.80;;;;;;4858267;29;20140;-79
2022/04/19 05:50:06;;;;;;;12.30;5.20;;;18.00;53.00;;;;;;4812832;29;20085;-82
2022/04/19 05:52:41;;;;;;;9.65;4.72;;;18.00;53.20;;;;;;4843529;29;20038;-79
2022/04/19 06:05:52;;;;;;;17.88;5.70;;;18.30;54.00;;;;;;4812954;29;20053;-77
2022/04/19 06:08:19;;;;;;;12.45;5.40;;;18.30;54.20;;;;;;4844331;29;20046;-74
2022/04/19 06:10:45;;;;;;;9.35;5.15;;;18.30;54.20;;;;;;4843930;29;20518;-71
2022/04/19 06:13:11;;;;;;;14.35;5.30;;;18.30;54.50;;;;;;4828133;29;20493;-74
2022/04/19 06:15:37;;;;;;;12.60;5.68;;;18.20;54.30;;;;;;4843531;29;20054;-75
2022/04/19 06:18:04;;;;;;;11.45;5.57;;;18.20;54.00;;;;;;4828420;29;20058;-73
2022/04/19 06:20:29;;;;;;;10.15;5.47;;;18.10;53.80;;;;;;4813412;29;20049;-75
2022/04/19 06:22:55;;;;;;;12.88;5.10;;;18.10;53.90;;;;;;4828351;29;20049;-73
2022/04/19 06:25:21;;;;;;;11.18;5.60;;;18.00;54.00;;;;;;4828227;29;20517;-73
2022/04/19 06:27:46;;;;;;;10.27;4.70;;;18.00;54.10;;;;;;4844898;29;20129;-75
2022/04/19 06:30:12;;;;;;;12.98;4.60;;;18.00;54.20;;;;;;4843662;29;20465;-75
2022/04/19 06:32:40;;;;;;;15.27;4.90;;;17.90;54.30;;;;;;4844439;29;20365;-75
2022/04/19 06:35:06;;;;;;;7.85;4.30;;;17.90;54.40;;;;;;4844651;29;20128;-74
2022/04/19 06:37:32;;;;;;;15.65;5.05;;;17.80;54.50;;;;;;4828162;29;20058;-74
2022/04/19 06:40:01;;;;;;;9.15;4.72;;;17.80;54.60;;;;;;4828100;29;20110;-73
2022/04/19 06:42:28;;;;;;;8.30;4.70;;;17.80;54.70;;;;;;4844004;29;20481;-73
2022/04/19 06:44:54;;;;;;;7.30;4.25;;;17.80;54.70;;;;;;4828621;29;20050;-73
2022/04/19 06:47:20;;;;;;;6.88;3.88;;;17.80;54.80;;;;;;4828106;29;20365;-75
2022/04/19 06:49:45;;;;;;;9.75;4.75;;;17.80;54.90;;;;;;4844179;29;20110;-73
2022/04/19 06:52:11;;;;;;;10.05;4.85;;;17.70;54.50;;;;;;4844164;29;20132;-73
2022/04/19 06:54:37;;;;;;;7.72;4.43;;;17.70;54.70;;;;;;4837486;29;20054;-74
2022/04/19 06:57:03;;;;;;;7.88;4.18;;;17.70;55.00;;;;;;4842338;29;20049;-73
2022/04/19 06:59:29;;;;;;;10.32;4.63;;;17.80;55.30;;;;;;4829081;29;20058;-72
2022/04/19 07:01:55;;;;;;;7.60;3.78;;;17.80;55.30;;;;;;4846689;29;20391;-75
2022/04/19 07:04:20;;;;;;;8.70;4.07;;;17.80;55.40;;;;;;4831229;29;20066;-74
2022/04/19 07:06:46;;;;;;;7.40;4.38;;;17.80;55.50;;;;;;4830562;29;20054;-73
2022/04/19 07:09:12;;;;;;;8.23;4.20;;;17.80;55.50;;;;;;4847105;29;20054;-73
2022/04/19 07:11:38;;;;;;;7.65;4.07;;;17.80;55.60;;;;;;4830195;29;20050;-74
2022/04/19 07:14:05;;;;;;;8.40;3.90;;;17.80;55.60;;;;;;4847226;29;20054;-75
2022/04/19 07:16:32;;;;;;;12.88;4.50;;;17.80;55.60;;;;;;4820885;29;20408;-73
2022/04/19 07:18:58;;;;;;;10.65;4.35;;;17.80;55.90;;;;;;4828603;29;20459;-72
2022/04/19 07:26:52;;;;;;;15.10;3.85;;;17.80;56.40;;;;;;4842015;29;20057;-69
2022/04/19 07:29:19;;;;;;;11.43;3.72;;;17.80;56.70;;;;;;4820694;29;20069;-72
2022/04/19 07:31:47;;;;;;;8.73;4.20;;;17.90;56.50;;;;;;4836107;29;20061;-73
2022/04/19 07:34:13;;;;;;;9.65;4.45;;;17.80;55.30;;;;;;4828553;29;20054;-73
2022/04/19 07:36:40;;;;;;;9.90;4.78;;;17.90;54.60;;;;;;4845801;29;20054;-74
2022/04/19 07:39:13;;;;;;;9.00;4.47;;;17.80;54.70;;;;;;4847055;29;20068;-72
2022/04/19 07:41:40;;;;;;;6.70;4.45;;;17.80;54.80;;;;;;4846404;29;20045;-74
2022/04/19 07:44:08;;;;;;;10.38;4.68;;;17.80;55.20;;;;;;4825997;29;20062;-73
2022/04/19 07:46:35;;;;;;;7.85;4.28;;;17.80;54.70;;;;;;4828332;29;20079;-74
2022/04/19 07:49:02;;;;;;;6.90;4.88;;;17.80;54.50;;;;;;4829179;29;20111;-71
2022/04/19 07:51:28;;;;;;;6.72;4.43;;;17.80;54.20;;;;;;4828050;29;20462;-75
2022/04/19 07:53:55;;;;;;;9.88;5.25;;;17.80;54.50;;;;;;4828018;29;20058;-73
2022/04/19 07:56:21;;;;;;;10.43;4.85;;;17.70;54.00;;;;;;4828067;29;20119;-71
2022/04/19 07:58:47;;;;;;;10.13;5.13;;;17.70;54.40;;;;;;4835674;29;20069;-72
2022/04/19 08:01:14;;;;;;;7.82;5.07;;;17.80;54.50;;;;;;4828515;29;20061;-72
2022/04/19 08:03:40;;;;;;;7.75;5.70;;;17.90;53.50;;;;;;4839487;29;20056;-71
2022/04/19 08:06:06;;;;;;;11.23;6.15;;;17.90;52.70;;;;;;4845708;29;20509;-73
2022/04/19 08:08:32;;;;;;;10.90;5.93;;;18.00;51.60;;;;;;4845897;29;20045;-71
2022/04/19 08:10:58;;;;;;;9.85;5.68;;;18.10;50.90;;;;;;4828889;29;20195;-71
2022/04/19 08:13:24;;;;;;;8.55;6.00;;;18.10;50.30;;;;;;4846357;29;20049;-71
2022/04/19 08:15:50;;;;;;;9.20;5.72;;;18.20;49.20;;;;;;4846199;29;20053;-72
2022/04/19 08:18:18;;;;;;;8.07;5.45;;;18.30;49.00;;;;;;4846087;29;20378;-71
2022/04/19 08:20:44;;;;;;;9.57;5.80;;;18.30;48.90;;;;;;4845885;29;20053;-73
2022/04/19 08:23:11;;;;;;;8.35;6.00;;;18.30;48.20;;;;;;4846018;29;20179;-72
2022/04/19 08:25:38;;;;;;;8.93;5.90;;;18.30;46.90;;;;;;4846017;29;20057;-72
2022/04/19 08:28:05;;;;;;;8.38;5.93;;;18.30;47.20;;;;;;4845753;29;20062;-72
2022/04/19 08:30:31;;;;;;;10.77;5.57;;;18.30;47.30;;;;;;4845470;29;20458;-71
2022/04/19 08:32:57;;;;;;;8.20;5.68;;;18.30;47.20;;;;;;4829585;29;20054;-73
2022/04/19 08:35:23;;;;;;;7.32;4.70;;;18.30;47.70;;;;;;4845390;29;20050;-74
2022/04/19 08:37:49;;;;;;;8.82;4.68;;;18.30;48.00;;;;;;4846313;29;20412;-72
2022/04/19 08:40:16;;;;;;;9.63;5.15;;;18.30;49.00;;;;;;4845674;29;20427;-71
2022/04/19 08:42:43;;;;;;;9.30;3.85;;;18.30;50.00;;;;;;4829396;29;20050;-70
2022/04/19 08:45:10;;;;;;;9.30;4.45;;;18.30;50.70;;;;;;4829831;29;20115;-73
2022/04/19 08:47:40;;;;;;;8.88;4.28;;;18.30;52.20;;;;;;4845784;29;20063;-75
2022/04/19 08:50:12;;;;;;;7.03;3.60;;;18.30;52.40;;;;;;4845945;29;20375;-71
2022/04/19 08:52:39;;;;;;;7.72;4.10;;;18.40;52.60;;;;;;4845135;29;20058;-73
2022/04/19 08:57:50;;;;;;;8.07;3.30;;;18.40;53.60;;;;;;4845501;29;20050;-71
2022/04/19 09:00:16;;;;;;;5.30;2.67;;;18.40;54.00;;;;;;4829815;29;20361;-75
2022/04/19 09:02:42;;;;;;;7.78;3.10;;;18.40;53.60;;;;;;4832445;29;20070;-71
2022/04/19 09:05:27;;;;;;;8.88;3.20;;;18.40;53.20;;;;;;4827148;29;20142;-72
2022/04/19 09:07:57;;;;;;;8.18;3.28;;;18.40;54.90;;;;;;4826998;29;20053;-73
2022/04/19 09:10:31;;;;;;;7.60;3.03;;;18.50;55.90;;;;;;4827069;29;20416;-72
2022/04/19 09:13:08;;;;;;;6.93;2.83;;;18.50;57.50;;;;;;4840162;29;20109;-74
2022/04/19 09:15:37;;;;;;;6.93;3.35;;;18.50;56.10;;;;;;4844836;29;20045;-76
2022/04/19 09:18:04;;;;;;;8.60;3.25;;;18.50;55.00;;;;;;4844825;29;20045;-73
2022/04/19 09:20:31;;;;;;;4.47;2.35;;;18.50;54.30;;;;;;4826717;29;20370;-72
2022/04/19 09:23:10;;;;;;;7.13;2.25;;;18.50;53.90;;;;;;4825700;29;20062;-74
2022/04/19 09:25:37;;;;;;;5.10;2.40;;;18.50;53.80;;;;;;4844868;29;20054;-73
2022/04/19 09:28:13;;;;;;;9.15;2.70;;;18.50;53.20;;;;;;4829153;29;20042;-72
2022/04/19 09:30:39;;;;;;;5.72;2.53;;;18.50;52.70;;;;;;4828552;29;20090;-73
2022/04/19 09:33:12;;;;;;;4.95;2.17;;;18.50;53.10;;;;;;4830506;29;20050;-73
2022/04/19 09:35:50;;;;;;;3.58;1.75;;;18.50;54.00;;;;;;4811263;29;20093;-73
2022/04/19 09:38:17;;;;;;;4.55;2.53;;;18.50;54.60;;;;;;4826469;29;20138;-73
2022/04/19 09:40:47;;;;;;;6.05;1.60;;;18.50;54.80;;;;;;4826631;29;20054;-73
2022/04/19 09:43:24;;;;;;;4.95;1.80;;;18.50;55.00;;;;;;4841096;29;20085;-74
2022/04/19 09:46:05;;;;;;;3.55;1.92;;;18.60;55.40;;;;;;4843968;29;20050;-73
2022/04/19 09:48:31;;;;;;;3.85;1.63;;;18.50;55.50;;;;;;4843663;29;20335;-73
2022/04/19 09:51:02;;;;;;;3.53;1.33;;;18.60;55.60;;;;;;4828060;29;20110;-75
2022/04/19 09:53:37;;;;;;;3.15;1.50;;;18.60;55.80;;;;;;4828285;29;20079;-72
2022/04/19 09:56:08;;;;;;;3.38;1.60;;;18.60;55.90;;;;;;4844251;29;20138;-73
2022/04/19 09:58:33;;;;;;;3.70;1.42;;;18.60;55.70;;;;;;4844061;29;20112;-72
2022/04/19 10:01:00;;;;;;;4.38;1.27;;;18.60;55.80;;;;;;4843597;29;20093;-73
2022/04/19 10:08:58;;;;;;;3.55;1.40;;;18.60;56.00;;;;;;4828434;29;20461;-74
2022/04/19 10:11:26;;;;;;;2.42;1.13;;;18.60;55.90;;;;;;4842339;29;20046;-74
2022/04/19 10:13:54;;;;;;;2.58;1.08;;;18.60;55.90;;;;;;4826120;29;20065;-76
2022/04/19 10:16:20;;;;;;;3.25;1.98;;;18.60;56.10;;;;;;4810540;29;20050;-72
2022/04/19 10:18:46;;;;;;;3.10;1.48;;;18.60;55.00;;;;;;4809922;29;20126;-73
2022/04/19 10:21:25;;;;;;;4.38;1.58;;;18.60;54.20;;;;;;4826064;29;20086;-73
2022/04/19 10:23:51;;;;;;;3.60;1.60;;;18.60;54.00;;;;;;4844648;29;20137;-73
2022/04/19 10:26:22;;;;;;;2.13;1.15;;;18.50;54.30;;;;;;4828485;29;20493;-75
2022/04/19 10:28:53;;;;;;;2.50;1.48;;;18.50;54.40;;;;;;4844283;29;20067;-74
2022/04/19 10:31:26;;;;;;;2.25;0.80;;;18.50;54.20;;;;;;4842894;29;20050;-73
2022/04/19 10:33:53;;;;;;;1.73;0.90;;;18.50;54.40;;;;;;4810227;29;20094;-73
2022/04/19 10:36:20;;;;;;;1.85;0.80;;;18.50;54.50;;;;;;4813914;29;20054;-72
2022/04/19 10:39:06;;;;;;;3.05;1.20;;;18.50;54.40;;;;;;4829450;29;20061;-74
2022/04/19 10:41:52;;;;;;;4.53;1.10;;;18.50;54.40;;;;;;4815705;29;20054;-74
2022/04/19 10:44:23;;;;;;;3.42;1.10;;;18.50;54.20;;;;;;4847913;29;20093;-76
2022/04/19 10:47:12;;;;;;;2.70;1.00;;;18.50;54.50;;;;;;4847409;29;20125;-72
2022/04/19 10:49:49;;;;;;;2.78;0.90;;;18.40;54.20;;;;;;4831678;29;20481;-75
2022/04/19 10:52:36;;;;;;;1.60;0.80;;;18.40;54.30;;;;;;4823782;29;20054;-73
2022/04/19 10:55:21;;;;;;;1.20;0.60;;;18.40;54.00;;;;;;4829504;29;20147;-73
2022/04/19 10:58:09;;;;;;;1.42;0.68;;;18.50;54.30;;;;;;4813282;29;20057;-74
2022/04/19 11:00:35;;;;;;;2.55;0.80;;;18.40;54.70;;;;;;4828960;29;20149;-73
2022/04/19 11:03:05;;;;;;;3.33;0.90;;;18.50;54.80;;;;;;4825713;29;20103;-72
2022/04/19 11:05:43;;;;;;;1.45;0.68;;;18.40;54.90;;;;;;4831009;29;20058;-73
2022/04/19 11:08:27;;;;;;;2.05;1.00;;;18.50;54.90;;;;;;4830955;29;20053;-72
2022/04/19 11:10:55;;;;;;;2.00;0.70;;;18.50;54.90;;;;;;4831054;29;20071;-72
2022/04/19 11:13:32;;;;;;;1.23;0.73;;;18.50;55.00;;;;;;4847053;29;20054;-73
2022/04/19 11:16:03;;;;;;;2.65;1.00;;;18.50;54.90;;;;;;4847715;29;20050;-73
2022/04/19 11:18:31;;;;;;;1.92;0.93;;;18.50;55.00;;;;;;4847360;29;20085;-73
2022/04/19 11:21:01;;;;;;;1.10;0.70;;;18.50;55.00;;;;;;4847195;29;20046;-73
2022/04/19 11:23:31;;;;;;;0.88;0.60;;;18.50;55.00;;;;;;4846566;29;20093;-72
2022/04/19 11:25:57;;;;;;;1.52;0.80;;;18.50;55.00;;;;;;4847304;29;20081;-73
2022/04/19 11:28:24;;;;;;;1.55;0.82;;;18.50;55.00;;;;;;4828535;29;20092;-73
2022/04/19 11:30:49;;;;;;;1.23;0.68;;;18.50;55.00;;;;;;4846886;29;20054;-74
2022/04/19 11:33:31;;;;;;;1.98;0.57;;;18.50;55.60;;;;;;4845892;29;20090;-72
2022/04/19 11:35:59;;;;;;;1.55;0.57;;;18.50;55.00;;;;;;4847475;29;20438;-73
2022/04/19 11:38:25;;;;;;;1.23;0.70;;;18.50;55.00;;;;;;4846764;29;20066;-72
2022/04/19 11:49:07;;;;;;;0.80;0.40;;;18.50;55.00;;;;;;4846264;29;20058;-75
2022/04/19 11:51:35;;;;;;;0.90;0.50;;;18.50;55.10;;;;;;4846922;29;20129;-73
2022/04/19 11:54:02;;;;;;;1.13;0.57;;;18.50;55.20;;;;;;4846404;29;20072;-75
2022/04/19 11:56:30;;;;;;;0.85;0.45;;;18.50;55.20;;;;;;4846544;29;20057;-74
2022/04/19 11:58:58;;;;;;;1.63;0.70;;;18.50;55.30;;;;;;4846263;29;20066;-74
2022/04/19 12:01:24;;;;;;;0.95;0.57;;;18.50;55.20;;;;;;4825535;29;20093;-74
2022/04/19 12:03:50;;;;;;;1.20;0.65;;;18.50;55.20;;;;;;4828109;29;20089;-74
2022/04/19 12:06:21;;;;;;;1.88;0.63;;;18.50;55.20;;;;;;4827664;29;20054;-76
2022/04/19 12:08:51;;;;;;;1.00;0.60;;;18.50;55.20;;;;;;4843173;29;20058;-74
2022/04/19 12:11:30;;;;;;;1.30;0.57;;;18.50;55.30;;;;;;4846323;29;20096;-75
2022/04/19 12:13:57;;;;;;;2.65;0.77;;;18.50;55.30;;;;;;4819963;29;20608;-74
2022/04/19 12:16:36;;;;;;;1.30;0.70;;;18.50;55.30;;;;;;4811979;29;20058;-72
2022/04/19 12:19:12;;;;;;;1.60;1.00;;;18.50;55.10;;;;;;4827896;29;20079;-72
2022/04/19 12:21:46;;;;;;;6.40;1.40;;;18.50;54.40;;;;;;4842397;29;20073;-74
2022/04/19 12:24:22;;;;;;;3.60;0.70;;;18.50;54.30;;;;;;4813004;29;20470;-76
2022/04/19 12:27:05;;;;;;;1.25;0.63;;;18.50;54.00;;;;;;4845706;29;20129;-75
2022/04/19 12:29:32;;;;;;;2.45;0.60;;;18.50;54.20;;;;;;4845569;29;20054;-73
2022/04/19 12:32:00;;;;;;;1.08;0.52;;;18.50;54.50;;;;;;4829450;29;20053;-75
2022/04/19 12:34:37;;;;;;;1.10;0.40;;;18.40;54.60;;;;;;4829098;29;20052;-74
2022/04/19 12:37:08;;;;;;;3.25;0.60;;;18.40;54.80;;;;;;4845836;29;20049;-72
2022/04/19 12:39:34;;;;;;;1.27;0.63;;;18.40;54.90;;;;;;4844832;29;20067;-73
2022/04/19 12:42:07;;;;;;;0.85;0.50;;;18.40;54.90;;;;;;4844462;29;20054;-73
2022/04/19 12:44:35;;;;;;;2.45;0.60;;;18.40;55.00;;;;;;4843468;29;20069;-72
2022/04/19 12:47:08;;;;;;;0.80;0.55;;;18.40;55.00;;;;;;4844861;29;20057;-72
2022/04/19 12:49:41;;;;;;;;;;;18.40;55.00;;;;;;4846231;29;20057;-74
2022/04/19 12:52:08;;;;;;;3.78;1.10;;;18.40;55.20;;;;;;4845203;29;19990;-73
2022/04/19 12:54:39;;;;;;;6.05;0.63;;;18.40;54.80;;;;;;4826667;29;20050;-73
2022/04/19 12:57:12;;;;;;;2.80;0.80;;;18.40;54.70;;;;;;4844606;29;20111;-75
2022/04/19 12:59:38;;;;;;;2.47;0.68;;;18.40;55.00;;;;;;4843987;29;20060;-73
2022/04/19 13:02:05;;;;;;;4.38;0.75;;;18.40;55.10;;;;;;4845188;29;20477;-75
2022/04/19 13:04:30;;;;;;;6.18;0.73;;;18.40;55.40;;;;;;4828407;29;20407;-73
2022/04/19 13:12:26;;;;;;;2.88;0.80;;;18.40;56.20;;;;;;4845086;29;20430;-74
2022/04/19 13:15:01;;;;;;;6.07;1.00;;;18.50;56.60;;;;;;4823676;29;20042;-75
2022/04/19 13:17:30;;;;;;;5.05;0.65;;;18.50;56.60;;;;;;4821286;29;20125;-73
2022/04/19 13:19:56;;;;;;;6.25;0.90;;;18.50;56.40;;;;;;4845197;29;20062;-76
2022/04/19 13:22:22;;;;;;;7.75;4.00;;;18.50;56.40;;;;;;4829028;29;20092;-75
2022/04/19 13:24:50;;;;;;;12.90;4.43;;;18.50;57.00;;;;;;4844886;29;20042;-74
2022/04/19 13:27:16;;;;;;;8.77;4.72;;;18.60;57.40;;;;;;4844825;29;20117;-72
2022/04/19 13:29:43;;;;;;;7.45;2.60;;;18.60;57.90;;;;;;4844729;29;20050;-73
2022/04/19 13:32:10;;;;;;;7.03;3.00;;;18.60;58.10;;;;;;4829034;29;20194;-71
2022/04/19 13:34:37;;;;;;;8.02;2.90;;;18.60;58.40;;;;;;4828372;29;20050;-71
2022/04/19 13:37:04;;;;;;;4.82;1.95;;;18.60;58.50;;;;;;4828759;29;20073;-71
2022/04/19 13:39:32;;;;;;;3.35;1.85;;;18.60;58.50;;;;;;4844968;29;20084;-72
2022/04/19 13:41:58;;;;;;;8.38;2.50;;;18.60;58.40;;;;;;4844636;29;20041;-74